Time;durP1;ratioP1;P1;durP2;ratioP2;P2;SDS_P1;SDS_P2;PMS_P1;PMS_P2;Temp;Humidity;BMP_temperature;BMP_pressure;BME280_temperature;BME280_humidity;BME280_pressure;Samples;Min_cycle;Max_cycle;Signal;HPM_P1;HPM_P2
2022/11/13 05:04:59;;;;;;;10.50;7.20;;;3.80;99.90;;;;;;5375299;23;20318;-70
2022/11/13 05:07:28;;;;;;;6.90;6.00;;;3.80;99.90;;;;;;4990517;28;20203;-71
2022/11/13 05:09:54;;;;;;;6.10;5.45;;;3.80;99.90;;;;;;4978316;28;20462;-70
2022/11/13 05:12:20;;;;;;;9.63;7.60;;;3.70;99.90;;;;;;4975418;28;20199;-70
2022/11/13 05:14:45;;;;;;;7.20;5.90;;;3.80;99.90;;;;;;4945162;29;20231;-70
2022/11/13 05:17:12;;;;;;;7.57;6.83;;;3.70;99.90;;;;;;4956476;29;20200;-70
2022/11/13 05:19:38;;;;;;;11.90;7.55;;;3.70;99.90;;;;;;4956292;29;20165;-70
2022/11/13 05:22:04;;;;;;;10.87;7.07;;;3.70;99.90;;;;;;4968625;28;20651;-70
2022/11/13 05:24:30;;;;;;;8.10;7.25;;;3.70;99.90;;;;;;4958119;28;20448;-71
2022/11/13 05:26:56;;;;;;;9.90;6.20;;;3.70;99.90;;;;;;4939069;29;20720;-71
2022/11/13 05:29:22;;;;;;;7.20;6.30;;;3.70;99.90;;;;;;4955925;29;20637;-70
2022/11/13 05:31:47;;;;;;;10.83;7.93;;;3.70;99.90;;;;;;4955862;29;20852;-70
2022/11/13 05:34:14;;;;;;;8.20;6.10;;;3.80;99.90;;;;;;4937139;29;20441;-70
2022/11/13 05:36:39;;;;;;;7.85;7.15;;;3.70;99.90;;;;;;4967110;28;20176;-69
2022/11/13 05:39:05;;;;;;;9.03;6.33;;;3.70;99.90;;;;;;4957624;28;20177;-69
2022/11/13 05:41:31;;;;;;;9.90;7.03;;;3.70;99.90;;;;;;4974927;28;20173;-69
2022/11/13 05:43:57;;;;;;;9.55;7.75;;;3.70;99.90;;;;;;4974480;28;20196;-69
2022/11/13 05:46:26;;;;;;;8.73;7.35;;;3.70;99.90;;;;;;4957574;28;20659;-69
2022/11/13 05:48:57;;;;;;;7.78;6.00;;;3.70;99.90;;;;;;4975012;28;20552;-69
2022/11/13 05:51:25;;;;;;;7.80;7.00;;;3.80;99.90;;;;;;4973979;28;20192;-70
2022/11/13 05:53:52;;;;;;;11.02;7.00;;;3.80;99.90;;;;;;4962756;28;20213;-71
2022/11/13 05:56:29;;;;;;;7.57;6.47;;;3.80;99.90;;;;;;4955512;29;20515;-70
2022/11/13 05:58:57;;;;;;;5.95;5.45;;;3.80;99.90;;;;;;4955453;29;20192;-70
2022/11/13 06:01:24;;;;;;;17.00;6.57;;;3.80;99.90;;;;;;4955598;29;20177;-69
2022/11/13 06:03:51;;;;;;;12.63;6.35;;;3.70;99.90;;;;;;4954900;28;20188;-69
2022/11/13 06:06:19;;;;;;;7.35;6.65;;;3.70;99.90;;;;;;4960613;28;20304;-69
2022/11/13 06:08:46;;;;;;;10.35;7.60;;;3.60;99.90;;;;;;4955191;29;20181;-70
2022/11/13 06:11:18;;;;;;;8.52;7.13;;;3.60;99.90;;;;;;4938434;29;20176;-70
2022/11/13 06:13:44;;;;;;;15.05;8.02;;;3.60;99.90;;;;;;4954679;28;20207;-70
2022/11/13 06:16:12;;;;;;;8.23;6.97;;;3.60;99.90;;;;;;4955298;29;20180;-69
2022/11/13 06:18:38;;;;;;;15.20;7.55;;;3.50;99.90;;;;;;4954868;29;20331;-70
2022/11/13 06:21:07;;;;;;;11.00;7.90;;;3.50;99.90;;;;;;4955018;28;20298;-70
2022/11/13 06:23:35;;;;;;;7.90;7.15;;;3.50;99.90;;;;;;4954526;28;20287;-69
2022/11/13 06:26:04;;;;;;;8.02;6.63;;;3.50;99.90;;;;;;4955002;29;20204;-70
2022/11/13 06:28:31;;;;;;;7.90;7.20;;;3.50;99.90;;;;;;4955092;29;20177;-70
2022/11/13 06:31:06;;;;;;;7.82;6.75;;;3.40;99.90;;;;;;4954751;29;20256;-69
2022/11/13 06:33:32;;;;;;;7.65;6.07;;;3.40;99.90;;;;;;4954426;28;20216;-70
2022/11/13 06:36:01;;;;;;;13.35;6.57;;;3.40;99.90;;;;;;4968444;28;20259;-69
2022/11/13 06:38:32;;;;;;;9.00;6.82;;;3.40;99.90;;;;;;4972379;28;20267;-69
2022/11/13 06:40:59;;;;;;;7.68;6.78;;;3.40;99.90;;;;;;4973450;28;20172;-70
2022/11/13 06:43:25;;;;;;;7.00;6.30;;;3.30;99.90;;;;;;4973732;28;20176;-69
2022/11/13 06:45:50;;;;;;;6.65;5.93;;;3.30;99.90;;;;;;4956702;28;20180;-70
2022/11/13 06:48:16;;;;;;;9.13;6.90;;;3.20;99.90;;;;;;4974056;28;20183;-69
2022/11/13 06:50:41;;;;;;;7.23;6.40;;;3.20;99.90;;;;;;4960035;28;20180;-70
2022/11/13 06:53:07;;;;;;;13.23;6.43;;;3.20;99.90;;;;;;4954346;29;20203;-70
2022/11/13 06:55:33;;;;;;;7.97;6.13;;;3.20;99.90;;;;;;4937581;29;20201;-70
2022/11/13 06:57:58;;;;;;;10.30;6.00;;;3.20;99.90;;;;;;4940749;29;20633;-70
2022/11/13 07:00:24;;;;;;;6.43;5.83;;;3.30;99.90;;;;;;4958601;29;20651;-70
2022/11/13 07:02:50;;;;;;;7.00;5.87;;;3.20;99.90;;;;;;4958263;29;20196;-70
2022/11/13 07:05:15;;;;;;;7.77;6.30;;;3.30;99.90;;;;;;4969551;28;20208;-70
2022/11/13 07:07:41;;;;;;;9.67;6.90;;;3.30;99.90;;;;;;4977665;28;20514;-69
2022/11/13 07:10:07;;;;;;;17.20;6.23;;;3.40;99.90;;;;;;4977773;28;20434;-70
2022/11/13 07:12:33;;;;;;;7.32;6.20;;;3.30;99.90;;;;;;4975673;28;20206;-70
2022/11/13 07:14:58;;;;;;;6.87;5.67;;;3.30;99.90;;;;;;4971537;28;20611;-70
2022/11/13 07:17:24;;;;;;;5.57;5.03;;;3.40;99.90;;;;;;4958294;29;20171;-69
2022/11/13 07:19:49;;;;;;;7.13;6.47;;;3.50;99.90;;;;;;4958319;29;20244;-69
2022/11/13 07:22:15;;;;;;;6.87;6.13;;;3.60;99.90;;;;;;4958275;29;20169;-69
2022/11/13 07:24:41;;;;;;;9.87;6.20;;;3.60;99.90;;;;;;4957863;28;20197;-70
2022/11/13 07:27:07;;;;;;;8.93;7.23;;;3.70;99.90;;;;;;4958613;28;20173;-72
2022/11/13 07:29:35;;;;;;;6.53;5.88;;;3.60;99.90;;;;;;4977298;28;20411;-70
2022/11/13 07:32:00;;;;;;;6.70;6.20;;;3.60;99.90;;;;;;4956937;28;20640;-69
2022/11/13 07:34:26;;;;;;;15.17;7.17;;;3.70;99.90;;;;;;4976980;28;20227;-70
2022/11/13 07:36:52;;;;;;;25.70;7.50;;;3.80;99.90;;;;;;4977194;28;20172;-69
2022/11/13 07:39:17;;;;;;;21.60;8.23;;;3.80;99.90;;;;;;4959738;28;20185;-68
2022/11/13 07:41:43;;;;;;;9.37;7.57;;;3.80;99.90;;;;;;4976725;28;20177;-73
2022/11/13 07:44:09;;;;;;;7.57;6.77;;;3.70;99.90;;;;;;4940094;29;20198;-70
2022/11/13 07:46:34;;;;;;;15.57;6.13;;;3.80;99.90;;;;;;4957731;28;20585;-71
2022/11/13 07:49:00;;;;;;;10.70;7.13;;;3.80;99.90;;;;;;4958777;28;20291;-70
2022/11/13 07:51:25;;;;;;;7.57;6.30;;;3.90;99.90;;;;;;4957604;29;20235;-70
2022/11/13 07:53:51;;;;;;;15.17;8.40;;;3.90;99.90;;;;;;4957173;28;20215;-70
2022/11/13 07:56:17;;;;;;;11.43;8.10;;;3.90;99.90;;;;;;4957591;29;20255;-69
2022/11/13 07:58:42;;;;;;;7.77;6.87;;;3.90;99.90;;;;;;4958433;28;20184;-69
2022/11/13 08:01:09;;;;;;;6.63;5.60;;;4.00;99.90;;;;;;4957383;29;20185;-69
2022/11/13 08:03:36;;;;;;;9.80;8.48;;;4.00;99.90;;;;;;4939683;28;20198;-69
2022/11/13 08:06:06;;;;;;;14.88;6.93;;;4.10;99.90;;;;;;4957430;28;20534;-69
2022/11/13 08:08:33;;;;;;;8.05;5.80;;;4.20;99.90;;;;;;4956220;28;20175;-71
2022/11/13 08:11:07;;;;;;;9.00;7.53;;;4.10;99.90;;;;;;4957259;29;20189;-70
2022/11/13 08:13:34;;;;;;;7.85;7.07;;;4.20;99.90;;;;;;4964513;28;20316;-69
2022/11/13 08:16:01;;;;;;;11.52;6.38;;;4.10;99.90;;;;;;4957350;29;20575;-69
2022/11/13 08:18:29;;;;;;;12.07;6.75;;;4.10;99.90;;;;;;4957321;29;20193;-69
2022/11/13 08:20:54;;;;;;;13.75;7.63;;;4.10;99.90;;;;;;4957121;29;20165;-68
2022/11/13 08:23:20;;;;;;;8.17;6.33;;;4.10;99.90;;;;;;4956550;28;20184;-70
2022/11/13 08:25:46;;;;;;;19.30;6.63;;;4.10;99.90;;;;;;4957285;29;20187;-68
2022/11/13 08:28:12;;;;;;;8.90;7.43;;;4.20;99.90;;;;;;4974730;28;20583;-74
2022/11/13 08:30:38;;;;;;;7.88;6.07;;;4.20;99.90;;;;;;4976337;28;20189;-69
2022/11/13 08:33:03;;;;;;;7.50;6.43;;;4.30;99.90;;;;;;4975779;28;20196;-70
2022/11/13 08:35:29;;;;;;;10.47;7.20;;;4.40;99.90;;;;;;4976138;28;20211;-68
2022/11/13 08:38:06;;;;;;;7.37;5.93;;;4.50;99.90;;;;;;4975979;28;20245;-68
2022/11/13 08:40:32;;;;;;;7.80;6.72;;;4.50;99.90;;;;;;4976074;28;20788;-70
2022/11/13 08:43:02;;;;;;;10.07;7.10;;;4.60;99.90;;;;;;4939947;29;20188;-67
2022/11/13 08:45:30;;;;;;;6.93;6.22;;;4.60;99.90;;;;;;4956729;28;20428;-68
2022/11/13 08:48:02;;;;;;;7.85;6.10;;;4.60;99.90;;;;;;4956327;29;20195;-70
2022/11/13 08:50:30;;;;;;;9.75;7.07;;;4.60;99.90;;;;;;4939457;29;20184;-69
2022/11/13 08:52:57;;;;;;;8.27;6.18;;;4.60;99.90;;;;;;4956130;29;20317;-68
2022/11/13 08:55:23;;;;;;;5.97;4.82;;;4.50;99.90;;;;;;4956360;28;20655;-71
2022/11/13 08:57:50;;;;;;;7.18;6.47;;;4.50;99.90;;;;;;4958504;28;20176;-68
2022/11/13 09:00:16;;;;;;;7.28;6.57;;;4.40;99.90;;;;;;4956520;29;20634;-69
2022/11/13 09:02:42;;;;;;;5.13;4.65;;;4.40;99.90;;;;;;4956019;29;20194;-68
2022/11/13 09:05:08;;;;;;;7.97;6.50;;;4.30;99.90;;;;;;4956175;28;20237;-68
2022/11/13 09:07:33;;;;;;;9.87;5.37;;;4.40;99.90;;;;;;4957252;28;20484;-69
2022/11/13 09:09:59;;;;;;;10.37;8.20;;;4.50;99.90;;;;;;4956453;29;20464;-71
2022/11/13 09:12:25;;;;;;;8.63;7.83;;;4.40;99.90;;;;;;4959408;28;20246;-69
2022/11/13 09:14:50;;;;;;;7.87;7.07;;;4.50;99.90;;;;;;4974323;28;20200;-66
2022/11/13 09:17:16;;;;;;;9.30;7.90;;;4.60;99.90;;;;;;4975043;28;20223;-70
2022/11/13 09:19:42;;;;;;;10.60;7.17;;;4.70;99.90;;;;;;4974841;28;20526;-65
2022/11/13 09:22:08;;;;;;;10.10;8.10;;;4.70;99.90;;;;;;4957927;28;20490;-68
2022/11/13 09:24:34;;;;;;;7.15;6.45;;;4.90;99.90;;;;;;4974429;28;20196;-68
2022/11/13 09:27:00;;;;;;;8.87;6.63;;;5.00;99.90;;;;;;4975246;28;20180;-69
2022/11/13 09:29:27;;;;;;;8.77;6.88;;;5.10;99.90;;;;;;4975106;28;20180;-68
2022/11/13 09:31:53;;;;;;;8.48;7.68;;;5.10;99.90;;;;;;4974987;28;20166;-67
2022/11/13 09:34:19;;;;;;;7.90;6.68;;;5.10;99.90;;;;;;4974160;28;20290;-68
2022/11/13 09:36:45;;;;;;;7.20;6.57;;;5.10;99.90;;;;;;4970956;28;20191;-68
2022/11/13 09:39:10;;;;;;;12.20;7.30;;;5.10;99.90;;;;;;4955394;28;20178;-67
2022/11/13 09:41:57;;;;;;;10.70;8.03;;;5.10;99.90;;;;;;4973294;28;20270;-68
2022/11/13 09:44:54;;;;;;;9.40;6.40;;;5.20;99.90;;;;;;4973552;28;20203;-69
2022/11/13 09:47:26;;;;;;;6.68;6.07;;;5.30;99.90;;;;;;4955329;28;20197;-67
2022/11/13 09:50:11;;;;;;;8.43;7.57;;;5.40;99.90;;;;;;4938206;29;20194;-67
2022/11/13 09:52:40;;;;;;;9.82;6.60;;;5.40;99.90;;;;;;4965299;28;20713;-68
2022/11/13 09:55:11;;;;;;;11.75;6.63;;;5.50;99.90;;;;;;4938104;29;20589;-68
2022/11/13 09:57:54;;;;;;;8.27;7.45;;;5.60;99.90;;;;;;4954445;28;20592;-67
2022/11/13 10:00:20;;;;;;;9.90;6.75;;;5.60;99.90;;;;;;4954837;28;20640;-70
2022/11/13 10:03:20;;;;;;;8.10;7.18;;;5.60;99.90;;;;;;4958756;28;20180;-68
2022/11/13 10:05:49;;;;;;;8.60;7.65;;;5.60;99.90;;;;;;4969078;28;20346;-68
2022/11/13 10:08:20;;;;;;;9.63;7.40;;;5.70;99.90;;;;;;4970245;28;20176;-67
2022/11/13 10:11:07;;;;;;;9.23;8.32;;;5.80;99.90;;;;;;4956392;28;20259;-71
2022/11/13 10:13:44;;;;;;;8.85;7.90;;;5.80;99.90;;;;;;4966109;28;20219;-69
2022/11/13 10:16:21;;;;;;;6.82;5.80;;;5.90;99.90;;;;;;4974286;28;20230;-69
2022/11/13 10:18:49;;;;;;;7.20;6.50;;;5.90;99.90;;;;;;4974188;28;20186;-72
2022/11/13 10:21:40;;;;;;;9.63;7.40;;;5.90;99.90;;;;;;4964601;28;20534;-70
2022/11/13 10:24:17;;;;;;;7.90;6.82;;;5.90;99.90;;;;;;4954712;28;20196;-72
2022/11/13 10:26:43;;;;;;;9.57;6.65;;;6.00;99.90;;;;;;4953289;28;20179;-70
2022/11/13 10:29:12;;;;;;;7.60;6.57;;;6.20;99.90;;;;;;4956114;28;20184;-68
2022/11/13 10:31:45;;;;;;;8.25;7.47;;;6.40;99.90;;;;;;4948758;28;20429;-67
2022/11/13 10:34:13;;;;;;;7.30;6.43;;;6.40;99.90;;;;;;4957588;28;20257;-69
2022/11/13 10:37:15;;;;;;;5.70;5.20;;;6.60;99.90;;;;;;4961572;28;20175;-68
2022/11/13 10:39:42;;;;;;;7.18;6.57;;;6.70;99.90;;;;;;4948521;29;20188;-68
2022/11/13 10:42:27;;;;;;;9.27;6.47;;;6.90;99.90;;;;;;4955124;29;20171;-69
2022/11/13 10:44:59;;;;;;;8.55;7.65;;;7.00;99.90;;;;;;4959573;28;20278;-69
2022/11/13 10:47:31;;;;;;;7.45;6.65;;;7.10;99.90;;;;;;4974396;28;20164;-69
2022/11/13 10:50:07;;;;;;;9.70;6.95;;;7.30;99.90;;;;;;4973989;28;20188;-70
2022/11/13 10:52:33;;;;;;;6.47;5.88;;;7.40;99.90;;;;;;4970586;28;20214;-70
2022/11/13 10:55:32;;;;;;;7.47;6.10;;;7.60;99.90;;;;;;4961895;28;20192;-70
2022/11/13 10:58:01;;;;;;;8.93;7.25;;;7.70;99.90;;;;;;4973284;28;20403;-69
2022/11/13 11:00:37;;;;;;;8.35;6.90;;;7.80;99.90;;;;;;4973199;28;20184;-69
2022/11/13 11:03:07;;;;;;;7.13;6.43;;;7.90;99.90;;;;;;4955406;28;20172;-69
2022/11/13 11:05:36;;;;;;;8.40;7.32;;;8.10;99.90;;;;;;4970988;28;20215;-69
2022/11/13 11:08:07;;;;;;;6.40;5.80;;;8.20;99.90;;;;;;4953904;29;20191;-71
2022/11/13 11:10:35;;;;;;;8.88;6.75;;;8.40;99.90;;;;;;4954057;29;20641;-69
2022/11/13 11:13:04;;;;;;;10.15;9.15;;;8.40;99.90;;;;;;4956551;28;20200;-70
2022/11/13 11:15:47;;;;;;;9.07;7.00;;;8.30;99.90;;;;;;4954688;28;20199;-70
2022/11/13 11:18:22;;;;;;;6.85;5.70;;;8.20;99.90;;;;;;4962024;28;20539;-64
2022/11/13 11:21:04;;;;;;;9.82;6.63;;;8.30;99.90;;;;;;4954823;29;20183;-63
2022/11/13 11:23:44;;;;;;;10.13;7.03;;;8.40;99.90;;;;;;4954149;28;20569;-64
2022/11/13 11:26:28;;;;;;;8.13;7.32;;;8.50;99.90;;;;;;4955171;28;20177;-64
2022/11/13 11:29:13;;;;;;;8.00;7.20;;;8.60;99.90;;;;;;4954646;29;20191;-65
2022/11/13 11:31:49;;;;;;;8.82;7.10;;;8.50;99.90;;;;;;4954704;29;20165;-65
2022/11/13 11:34:21;;;;;;;7.68;6.95;;;8.50;99.90;;;;;;4936852;29;20680;-63
2022/11/13 11:37:16;;;;;;;7.00;6.35;;;8.30;99.90;;;;;;4954611;29;20177;-63
2022/11/13 11:40:09;;;;;;;10.98;6.88;;;8.20;99.90;;;;;;4954413;29;20204;-64
2022/11/13 11:42:44;;;;;;;8.38;7.10;;;8.10;99.90;;;;;;4953241;28;20181;-63
2022/11/13 11:45:24;;;;;;;9.10;6.97;;;7.90;99.90;;;;;;4958004;28;20199;-63
2022/11/13 11:47:52;;;;;;;8.38;7.50;;;7.80;99.90;;;;;;4958056;29;20628;-62
2022/11/13 11:50:33;;;;;;;8.45;7.60;;;7.70;99.90;;;;;;4957803;29;20172;-62
2022/11/13 11:53:04;;;;;;;8.07;7.22;;;7.70;99.90;;;;;;4957508;29;20203;-62
2022/11/13 11:55:36;;;;;;;8.65;7.05;;;7.70;99.90;;;;;;4963671;28;20196;-67
2022/11/13 11:58:45;;;;;;;9.88;7.65;;;7.80;99.90;;;;;;4959716;28;20579;-68
2022/11/13 12:01:42;;;;;;;8.85;7.78;;;7.90;99.90;;;;;;4973128;28;20599;-67
2022/11/13 12:04:19;;;;;;;7.60;6.90;;;8.00;99.90;;;;;;4959784;28;20207;-69
2022/11/13 12:07:02;;;;;;;9.90;7.90;;;8.00;99.90;;;;;;4977702;28;20254;-68
2022/11/13 12:09:30;;;;;;;9.20;7.82;;;8.00;99.90;;;;;;4960330;28;20183;-62
2022/11/13 12:11:59;;;;;;;7.45;6.70;;;8.10;99.90;;;;;;4976947;28;20203;-64
2022/11/13 12:14:45;;;;;;;7.78;6.78;;;8.10;99.90;;;;;;4978157;28;20196;-62
2022/11/13 12:17:45;;;;;;;7.95;7.15;;;8.20;99.90;;;;;;4977913;28;20532;-62
2022/11/13 12:20:21;;;;;;;8.90;6.20;;;8.30;99.90;;;;;;4976603;28;20270;-64
2022/11/13 12:23:19;;;;;;;9.10;7.15;;;8.30;99.90;;;;;;4976271;28;20431;-63
2022/11/13 12:26:05;;;;;;;8.27;7.18;;;8.40;99.90;;;;;;4973105;28;20184;-63
2022/11/13 12:28:57;;;;;;;9.27;7.50;;;8.50;99.90;;;;;;4976956;28;20191;-62
2022/11/13 12:31:40;;;;;;;9.00;7.35;;;8.50;99.90;;;;;;4967971;28;20247;-64
2022/11/13 12:34:48;;;;;;;9.88;7.70;;;8.60;99.90;;;;;;4975978;28;20207;-63
2022/11/13 12:37:22;;;;;;;7.70;6.93;;;8.70;99.90;;;;;;4973517;28;20184;-63
2022/11/13 12:40:14;;;;;;;8.98;7.30;;;8.70;99.90;;;;;;4975702;28;20183;-63
2022/11/13 12:43:11;;;;;;;8.23;7.35;;;8.80;99.90;;;;;;4972534;28;20192;-64
2022/11/13 12:45:36;;;;;;;11.07;9.07;;;8.90;99.90;;;;;;4974259;28;20695;-64
2022/11/13 12:48:09;;;;;;;10.23;7.40;;;9.00;99.90;;;;;;4956830;28;20283;-65
2022/11/13 12:50:35;;;;;;;8.80;6.97;;;9.00;99.90;;;;;;4956525;28;20219;-64
2022/11/13 12:53:04;;;;;;;7.87;7.17;;;9.10;99.90;;;;;;4973706;28;20591;-66
2022/11/13 12:55:36;;;;;;;8.55;6.38;;;9.30;99.90;;;;;;4974313;28;20427;-64
2022/11/13 12:58:31;;;;;;;7.50;6.18;;;9.30;99.90;;;;;;4976269;28;20179;-65
2022/11/13 13:01:05;;;;;;;7.07;6.38;;;9.30;99.90;;;;;;4974037;28;20191;-64
2022/11/13 13:04:10;;;;;;;8.45;7.00;;;9.40;99.90;;;;;;4975418;28;20176;-64
2022/11/13 13:07:08;;;;;;;7.25;6.43;;;9.40;99.90;;;;;;4968490;28;20199;-64
2022/11/13 13:09:54;;;;;;;6.20;5.53;;;9.50;99.90;;;;;;4976125;28;20212;-66
2022/11/13 13:12:37;;;;;;;6.35;5.80;;;9.50;99.90;;;;;;4974755;28;20184;-65
2022/11/13 13:15:10;;;;;;;5.85;5.35;;;9.50;99.90;;;;;;4958151;28;20198;-65
2022/11/13 13:17:35;;;;;;;6.30;5.70;;;9.50;99.90;;;;;;4975983;28;20236;-65
2022/11/13 13:20:19;;;;;;;6.43;4.70;;;9.50;99.90;;;;;;4958475;28;20204;-65
2022/11/13 13:22:56;;;;;;;5.88;5.13;;;9.50;99.90;;;;;;4975439;28;20180;-63
2022/11/13 13:25:27;;;;;;;6.30;5.18;;;9.60;99.90;;;;;;4975624;28;20222;-64
2022/11/13 13:28:00;;;;;;;6.18;5.68;;;9.70;99.90;;;;;;4975518;28;20180;-65
2022/11/13 13:30:27;;;;;;;10.32;6.70;;;9.70;99.90;;;;;;4975503;28;20215;-65
2022/11/13 13:32:59;;;;;;;5.68;5.10;;;9.80;99.90;;;;;;4975131;28;20200;-65
2022/11/13 13:35:34;;;;;;;7.07;6.38;;;9.80;99.90;;;;;;4975301;28;20192;-67
2022/11/13 13:38:36;;;;;;;6.72;6.00;;;9.80;99.90;;;;;;4975407;28;20238;-65
2022/11/13 13:41:17;;;;;;;5.22;4.63;;;9.90;99.90;;;;;;4975283;28;20258;-65
2022/11/13 13:43:56;;;;;;;5.93;5.28;;;9.90;99.90;;;;;;4974658;28;20203;-63
2022/11/13 13:46:28;;;;;;;5.82;5.32;;;9.90;99.90;;;;;;4958222;28;20703;-65
2022/11/13 13:48:56;;;;;;;6.63;6.03;;;9.90;99.90;;;;;;4975467;28;20592;-63
2022/11/13 13:51:33;;;;;;;7.63;5.75;;;9.90;99.90;;;;;;4974961;28;20195;-65
2022/11/13 13:54:00;;;;;;;7.95;5.35;;;10.00;99.90;;;;;;4974591;28;20200;-65
2022/11/13 13:56:26;;;;;;;5.15;4.75;;;10.00;99.90;;;;;;4975001;28;20179;-63
2022/11/13 13:58:52;;;;;;;5.80;5.07;;;10.00;99.90;;;;;;4957265;28;20180;-63
2022/11/13 14:01:30;;;;;;;6.15;5.47;;;10.00;99.90;;;;;;4957439;28;20187;-65
2022/11/13 14:04:12;;;;;;;5.57;5.13;;;10.10;99.90;;;;;;4974329;28;20284;-65
2022/11/13 14:06:51;;;;;;;5.97;5.40;;;10.00;99.90;;;;;;4974148;28;20581;-65
2022/11/13 14:09:22;;;;;;;7.22;6.40;;;10.10;99.90;;;;;;4974812;28;20251;-64
2022/11/13 14:12:05;;;;;;;6.70;6.07;;;10.20;99.90;;;;;;4956976;28;20180;-65
2022/11/13 14:14:34;;;;;;;7.32;5.78;;;10.10;99.90;;;;;;4974459;28;20585;-64
2022/11/13 14:17:00;;;;;;;6.20;5.47;;;10.10;99.90;;;;;;4974367;28;20164;-64
2022/11/13 14:19:26;;;;;;;6.22;5.68;;;10.20;99.90;;;;;;4974743;28;20659;-65
2022/11/13 14:22:01;;;;;;;6.40;5.90;;;10.20;99.90;;;;;;4974682;28;20172;-64
2022/11/13 14:24:46;;;;;;;6.18;5.57;;;10.20;99.90;;;;;;4974363;28;20195;-65
2022/11/13 14:27:18;;;;;;;7.53;5.93;;;10.10;99.90;;;;;;4974316;28;20246;-65
2022/11/13 14:29:47;;;;;;;5.40;4.90;;;10.10;99.90;;;;;;4974584;28;20263;-64
2022/11/13 14:32:21;;;;;;;5.63;5.13;;;10.20;99.90;;;;;;4973964;28;20544;-64
2022/11/13 14:34:50;;;;;;;7.22;6.53;;;10.10;99.90;;;;;;4974018;28;20211;-64
2022/11/13 14:37:30;;;;;;;7.13;6.43;;;10.10;99.90;;;;;;4974402;28;20176;-64
2022/11/13 14:39:59;;;;;;;6.70;5.95;;;10.10;99.90;;;;;;4974405;28;20250;-64
2022/11/13 14:42:36;;;;;;;6.78;5.43;;;10.10;99.90;;;;;;4973925;28;20184;-64
2022/11/13 14:45:13;;;;;;;22.88;14.20;;;10.10;99.90;;;;;;4973466;28;20262;-64
2022/11/13 14:47:39;;;;;;;10.10;8.57;;;10.10;99.90;;;;;;4974263;28;20600;-64
2022/11/13 14:50:18;;;;;;;17.52;11.77;;;10.10;99.90;;;;;;4973784;28;20616;-65
2022/11/13 14:52:55;;;;;;;9.93;6.80;;;10.00;99.90;;;;;;4973906;28;20209;-65
2022/11/13 14:55:25;;;;;;;6.32;5.57;;;10.00;99.90;;;;;;4973592;28;20738;-73
2022/11/13 14:57:50;;;;;;;6.30;5.70;;;10.00;99.90;;;;;;4973633;28;20267;-71
2022/11/13 15:00:30;;;;;;;7.07;6.37;;;10.00;99.90;;;;;;4974190;28;20243;-72
2022/11/13 15:02:58;;;;;;;5.85;5.35;;;10.00;99.90;;;;;;4973594;28;20167;-71
2022/11/13 15:05:23;;;;;;;6.30;5.55;;;9.90;99.90;;;;;;4973862;28;20615;-71
2022/11/13 15:07:51;;;;;;;6.77;6.13;;;9.90;99.90;;;;;;4973534;28;20172;-72
2022/11/13 15:10:19;;;;;;;5.70;5.20;;;9.90;99.90;;;;;;4973725;28;20546;-72
2022/11/13 15:12:44;;;;;;;7.22;6.53;;;9.90;99.90;;;;;;4955937;28;20549;-70
2022/11/13 15:15:18;;;;;;;9.43;6.50;;;9.80;99.90;;;;;;4973523;28;20203;-71
2022/11/13 15:17:46;;;;;;;6.18;5.68;;;9.80;99.90;;;;;;4975177;28;20665;-71
2022/11/13 15:20:20;;;;;;;7.20;6.15;;;9.70;99.90;;;;;;4977437;28;20188;-70
2022/11/13 15:22:45;;;;;;;7.82;6.95;;;9.70;99.90;;;;;;4977101;28;20552;-73
2022/11/13 15:25:13;;;;;;;7.27;6.57;;;9.60;99.90;;;;;;4977849;28;20222;-70
2022/11/13 15:27:38;;;;;;;6.10;5.55;;;9.50;99.90;;;;;;4977298;28;20266;-70
2022/11/13 15:30:04;;;;;;;6.10;5.50;;;9.40;99.90;;;;;;4976996;28;20661;-69
2022/11/13 15:32:30;;;;;;;6.37;5.73;;;9.30;99.90;;;;;;4977452;28;20196;-69
2022/11/13 15:34:55;;;;;;;6.90;6.27;;;9.30;99.90;;;;;;4977229;28;20979;-69
2022/11/13 15:37:21;;;;;;;7.97;7.20;;;9.20;99.90;;;;;;4977154;28;20172;-68
2022/11/13 15:39:47;;;;;;;8.13;6.43;;;9.10;99.90;;;;;;4976676;28;20243;-68
2022/11/13 15:42:16;;;;;;;7.40;6.70;;;9.10;99.90;;;;;;4976784;28;20239;-69
2022/11/13 15:44:42;;;;;;;8.18;7.00;;;9.00;99.90;;;;;;4976671;28;20668;-66
2022/11/13 15:47:28;;;;;;;7.53;5.87;;;8.90;99.90;;;;;;4977399;28;20168;-64
2022/11/13 15:49:55;;;;;;;7.47;6.68;;;8.70;99.90;;;;;;4977116;28;20563;-66
2022/11/13 15:52:23;;;;;;;9.10;7.70;;;8.70;99.90;;;;;;4977346;28;20207;-66
2022/11/13 15:54:49;;;;;;;8.88;7.22;;;8.60;99.90;;;;;;4976702;28;20283;-65
2022/11/13 15:57:25;;;;;;;9.80;6.80;;;8.50;99.90;;;;;;4976632;28;20714;-66
2022/11/13 15:59:57;;;;;;;7.82;7.05;;;8.50;99.90;;;;;;4977015;28;20175;-69
2022/11/13 16:02:22;;;;;;;8.30;7.18;;;8.50;99.90;;;;;;4959865;28;20172;-66
2022/11/13 16:04:48;;;;;;;7.97;7.27;;;8.40;99.90;;;;;;4959167;28;20747;-69
2022/11/13 16:07:20;;;;;;;7.57;6.77;;;8.30;99.90;;;;;;4976792;28;20426;-67
2022/11/13 16:09:46;;;;;;;7.65;6.90;;;8.30;99.90;;;;;;4959792;28;20170;-68
2022/11/13 16:12:12;;;;;;;8.75;7.10;;;8.20;99.90;;;;;;4976472;28;20243;-67
2022/11/13 16:14:39;;;;;;;7.63;6.93;;;8.20;99.90;;;;;;4976344;28;20199;-67
2022/11/13 16:17:11;;;;;;;8.85;7.03;;;8.10;99.90;;;;;;4976672;28;20658;-66
2022/11/13 16:19:37;;;;;;;8.00;7.25;;;8.10;99.90;;;;;;4959823;28;20188;-66
2022/11/13 16:22:04;;;;;;;7.95;7.15;;;7.90;99.90;;;;;;4976406;28;20172;-67
2022/11/13 16:24:29;;;;;;;7.55;6.72;;;7.90;99.90;;;;;;4976186;28;20663;-69
2022/11/13 16:26:57;;;;;;;9.53;8.53;;;7.70;99.90;;;;;;4976163;28;20215;-65
2022/11/13 16:29:23;;;;;;;9.25;8.35;;;7.70;99.90;;;;;;4975453;28;20173;-67
2022/11/13 16:31:49;;;;;;;8.82;8.02;;;7.60;99.90;;;;;;4976273;28;20568;-67
2022/11/13 16:34:14;;;;;;;12.27;10.03;;;7.50;99.90;;;;;;4975873;28;20203;-66
2022/11/13 16:36:41;;;;;;;10.37;9.37;;;7.50;99.90;;;;;;4959098;28;20176;-66
2022/11/13 16:39:13;;;;;;;10.07;9.00;;;7.40;99.90;;;;;;4971565;28;20177;-66
2022/11/13 16:41:39;;;;;;;12.07;10.38;;;7.40;99.90;;;;;;4958843;28;20181;-68
2022/11/13 16:44:04;;;;;;;11.37;8.90;;;7.30;99.90;;;;;;4956624;28;20278;-67
2022/11/13 16:46:36;;;;;;;13.03;9.30;;;7.20;99.90;;;;;;4957030;29;20169;-66
2022/11/13 16:49:02;;;;;;;11.75;9.75;;;7.20;99.90;;;;;;4959548;28;20195;-68
2022/11/13 16:51:28;;;;;;;10.87;8.83;;;7.10;99.90;;;;;;4975996;28;20282;-66
2022/11/13 16:53:53;;;;;;;9.70;8.40;;;7.10;99.90;;;;;;4975530;28;20242;-68
2022/11/13 16:56:29;;;;;;;8.43;7.50;;;7.00;99.90;;;;;;4975814;28;20187;-68
2022/11/13 16:58:55;;;;;;;8.65;7.88;;;6.90;99.90;;;;;;4976076;28;20206;-65
2022/11/13 17:01:22;;;;;;;12.45;8.65;;;6.90;99.90;;;;;;4975644;28;20187;-67
2022/11/13 17:03:47;;;;;;;10.57;8.65;;;6.80;99.90;;;;;;4975424;28;20194;-67
2022/11/13 17:06:42;;;;;;;10.47;9.33;;;6.70;99.90;;;;;;4975314;28;20595;-67
2022/11/13 17:09:09;;;;;;;7.60;6.78;;;6.70;99.90;;;;;;4970775;28;20423;-72
2022/11/13 17:11:34;;;;;;;9.63;7.90;;;6.60;99.90;;;;;;4975509;28;20648;-73
2022/11/13 17:14:01;;;;;;;9.00;8.10;;;6.60;99.90;;;;;;4975014;28;20213;-72
2022/11/13 17:16:28;;;;;;;9.63;8.63;;;6.50;99.90;;;;;;4975721;28;20181;-71
2022/11/13 17:18:55;;;;;;;7.60;6.93;;;6.50;99.90;;;;;;4974369;28;20538;-72
2022/11/13 17:21:25;;;;;;;7.93;7.18;;;6.50;99.90;;;;;;4975475;28;20190;-73
2022/11/13 17:24:07;;;;;;;7.38;6.63;;;6.50;99.90;;;;;;4974897;28;20245;-72
2022/11/13 17:26:32;;;;;;;8.13;7.40;;;6.40;99.90;;;;;;4963037;28;20642;-72
2022/11/13 17:28:58;;;;;;;9.00;8.00;;;6.40;99.90;;;;;;4956304;29;20184;-66
2022/11/13 17:31:24;;;;;;;9.33;7.23;;;6.30;99.90;;;;;;4956179;29;20179;-68
2022/11/13 17:33:53;;;;;;;9.00;7.53;;;6.30;99.90;;;;;;4955795;28;20262;-66
2022/11/13 17:36:20;;;;;;;9.77;8.77;;;6.20;99.90;;;;;;4959201;28;20459;-68
2022/11/13 17:38:46;;;;;;;10.90;7.53;;;6.20;99.90;;;;;;4975234;28;20615;-65
2022/11/13 17:41:13;;;;;;;9.77;8.57;;;6.10;99.90;;;;;;4974364;28;20270;-66
2022/11/13 17:43:40;;;;;;;8.90;7.38;;;6.10;99.90;;;;;;4973786;28;20438;-67
2022/11/13 17:46:09;;;;;;;7.95;6.75;;;6.10;99.90;;;;;;4974824;28;20182;-67
2022/11/13 17:48:35;;;;;;;8.20;7.35;;;6.10;99.90;;;;;;4975241;28;20176;-67
2022/11/13 17:51:03;;;;;;;8.93;7.40;;;6.00;99.90;;;;;;4974441;28;20279;-66
2022/11/13 17:53:30;;;;;;;10.48;9.23;;;6.00;99.90;;;;;;4974224;28;20198;-67
2022/11/13 17:56:01;;;;;;;9.10;7.07;;;6.00;99.90;;;;;;4974495;28;20179;-66
2022/11/13 17:58:28;;;;;;;10.48;8.13;;;6.00;99.90;;;;;;4974344;28;20178;-66
2022/11/13 18:01:03;;;;;;;7.95;6.75;;;6.00;99.90;;;;;;4974304;28;20185;-67
2022/11/13 18:03:29;;;;;;;8.77;7.72;;;5.90;99.90;;;;;;4973668;28;20185;-66
2022/11/13 18:05:55;;;;;;;11.63;8.90;;;5.90;99.90;;;;;;4974062;28;20188;-66
2022/11/13 18:08:20;;;;;;;11.50;9.53;;;5.90;99.90;;;;;;4973919;28;20571;-66
2022/11/13 18:10:46;;;;;;;11.47;8.23;;;5.80;99.90;;;;;;4974021;28;20187;-67
2022/11/13 18:13:12;;;;;;;9.23;8.33;;;5.80;99.90;;;;;;4956102;28;20201;-66
2022/11/13 18:15:38;;;;;;;7.87;7.20;;;5.80;99.90;;;;;;4974144;28;20250;-66
2022/11/13 18:18:06;;;;;;;11.55;9.27;;;5.80;99.90;;;;;;4973793;28;20310;-66